Hebron, Connecticut
Current Conditions -  °F | °C
As of 10:52 PM on Friday 24 Oct 2014 (Local Time) from KIJD Reporting Station
Broken Clouds Broken Clouds  
Wind Chill: 50°   Ceiling: 3100
Heat Index: 50°   Visibility: 10mi
Dew Point: 42°   Wind: 3mph
Humidity: 74%   Direction: 290°WNW
Pressure: 29.78"   Gusts: NA
Location:  41.66°N, 72.37°W
Report Text: KIJD 250252Z AUTO 29003KT 10SM BKN031 10/06 A2978 RMK AO2 SLP083 T01000056 53002
Loading
Personal Weather Stations






























Interactive Weather Map
Tropical Storm Tracking
New forecast layout! Learn more

10-Day Weather Forecast

Advertisements
Track Severe Weather on mobile